createdAt,value
2023-02-11T00:04:28.951Z,68.09
2023-02-11T00:09:20.953Z,68.33
2023-02-11T00:14:13.103Z,68.84
2023-02-11T00:19:06.607Z,68.82
2023-02-11T00:24:00.054Z,69.29
2023-02-11T00:28:53.346Z,68.55
2023-02-11T00:33:45.869Z,69.03
2023-02-11T00:38:37.640Z,69.61
2023-02-11T00:43:29.370Z,69.76
2023-02-11T00:48:21.141Z,70.16
2023-02-11T00:53:12.963Z,69.75
2023-02-11T00:58:04.681Z,69.72
2023-02-11T01:02:56.962Z,70.84
2023-02-11T01:07:48.761Z,70.93
2023-02-11T01:12:41.204Z,71.06
2023-02-11T01:17:33.975Z,71.50
2023-02-11T01:22:27.269Z,71.99
2023-02-11T01:27:19.030Z,72.24
2023-02-11T01:32:11.924Z,72.66
2023-02-11T01:37:03.799Z,72.83
2023-02-11T01:41:55.685Z,72.63
2023-02-11T01:46:48.320Z,72.76
2023-02-11T01:51:55.290Z,72.16
2023-02-11T01:57:09.943Z,72.08
2023-02-11T02:02:08.596Z,71.56
2023-02-11T02:07:09.637Z,71.64
2023-02-11T02:12:01.356Z,71.18
2023-02-11T02:16:53.145Z,71.77
2023-02-11T02:22:03.506Z,71.18
2023-02-11T02:27:04.080Z,72.13
2023-02-11T02:32:17.430Z,72.68
2023-02-11T02:37:27.317Z,73.29
2023-02-11T02:42:20.172Z,73.86
2023-02-11T02:47:11.942Z,74.06
2023-02-11T02:52:25.205Z,74.82
2023-02-11T02:57:16.810Z,74.72
2023-02-11T03:02:20.643Z,75.61
2023-02-11T03:07:12.287Z,76.44
2023-02-11T03:12:04.970Z,75.88
2023-02-11T03:17:00.199Z,76.37
2023-02-11T03:21:54.951Z,75.56
2023-02-11T03:26:51.431Z,75.43
2023-02-11T03:32:00.196Z,73.79
2023-02-11T03:36:57.090Z,73.67
2023-02-11T03:41:53.295Z,73.38
2023-02-11T03:46:50.447Z,73.48
2023-02-11T03:51:42.992Z,73.90
2023-02-11T03:56:42.244Z,74.08
2023-02-11T04:01:34.253Z,73.83
2023-02-11T04:06:26.022Z,74.05
2023-02-11T04:11:18.775Z,73.28
2023-02-11T04:16:10.482Z,72.63
2023-02-11T04:21:03.262Z,72.29
2023-02-11T04:25:54.964Z,72.71
2023-02-11T04:30:47.891Z,72.76
2023-02-11T04:35:39.659Z,73.09
2023-02-11T04:40:31.463Z,72.65
2023-02-11T04:45:23.192Z,72.90
2023-02-11T04:50:16.993Z,73.01
2023-02-11T04:55:08.748Z,72.28
2023-02-11T05:00:00.463Z,72.41
2023-02-11T05:04:52.229Z,72.21
2023-02-11T05:09:44.687Z,72.22
2023-02-11T05:14:36.543Z,72.01
2023-02-11T05:19:28.821Z,73.11
2023-02-11T05:24:20.917Z,73.21
2023-02-11T05:29:12.770Z,73.14
2023-02-11T05:34:04.552Z,73.87
2023-02-11T05:38:56.308Z,73.55
2023-02-11T05:43:51.034Z,73.35
2023-02-11T05:48:43.280Z,73.60
2023-02-11T05:53:35.167Z,73.68
2023-02-11T05:58:27.336Z,73.54
2023-02-11T06:03:19.352Z,74.24
2023-02-11T06:08:11.687Z,74.56
2023-02-11T06:13:03.853Z,75.16
2023-02-11T06:17:56.925Z,75.27
2023-02-11T06:22:48.714Z,75.59
2023-02-11T06:27:40.527Z,75.11
2023-02-11T06:32:44.455Z,75.42
2023-02-11T06:37:37.370Z,75.24
2023-02-11T06:42:29.060Z,75.54
2023-02-11T06:47:20.982Z,75.62
2023-02-11T06:52:12.764Z,75.42
2023-02-11T06:57:04.522Z,75.25
2023-02-11T07:01:56.191Z,75.57
2023-02-11T07:06:47.956Z,76.17
2023-02-11T07:11:39.743Z,75.95
2023-02-11T07:16:32.334Z,75.69
2023-02-11T07:21:24.520Z,76.86
2023-02-11T07:26:18.947Z,77.26
2023-02-11T07:31:13.871Z,78.01
2023-02-11T07:36:08.474Z,77.44
2023-02-11T07:41:01.921Z,77.73
2023-02-11T07:45:53.823Z,78.06
2023-02-11T07:50:45.702Z,78.23
2023-02-11T07:55:37.441Z,78.79
2023-02-11T08:00:29.227Z,78.08
2023-02-11T08:05:20.997Z,78.28
2023-02-11T08:10:12.653Z,77.72
2023-02-11T08:15:04.693Z,78.38
2023-02-11T08:19:56.333Z,77.98
2023-02-11T08:24:50.107Z,78.17
2023-02-11T08:29:43.071Z,78.00
2023-02-11T08:34:34.847Z,77.70
2023-02-11T08:39:26.537Z,78.03
2023-02-11T08:44:20.060Z,77.39
2023-02-11T08:49:11.736Z,77.49
2023-02-11T08:54:04.273Z,77.45
2023-02-11T08:58:55.969Z,77.76
2023-02-11T09:03:48.199Z,77.31
2023-02-11T09:08:45.322Z,77.55
2023-02-11T09:13:38.383Z,77.13
2023-02-11T09:18:30.383Z,76.88
2023-02-11T09:23:22.294Z,77.30
2023-02-11T09:28:14.555Z,77.69
2023-02-11T09:33:06.317Z,76.61
2023-02-11T09:37:58.020Z,76.33
2023-02-11T09:43:13.106Z,76.18
2023-02-11T09:48:14.890Z,75.40
2023-02-11T09:53:25.224Z,75.61
2023-02-11T09:58:22.261Z,75.37
2023-02-11T10:03:26.233Z,74.90
2023-02-11T10:08:37.002Z,74.22
2023-02-11T10:13:47.201Z,73.62
2023-02-11T10:19:08.716Z,72.78
2023-02-11T10:24:03.827Z,72.59
2023-02-11T10:28:59.496Z,73.20
2023-02-11T10:34:00.453Z,73.72
2023-02-11T10:38:52.244Z,73.00
2023-02-11T10:43:45.652Z,72.59
2023-02-11T10:48:40.417Z,73.31
2023-02-11T10:53:33.696Z,73.07
2023-02-11T10:58:30.769Z,73.18
2023-02-11T11:03:30.613Z,73.02
2023-02-11T11:08:22.652Z,72.74
2023-02-11T11:13:28.066Z,73.27
2023-02-11T11:18:23.222Z,73.32
2023-02-11T11:23:22.767Z,72.91
2023-02-11T11:28:24.971Z,73.40
2023-02-11T11:33:22.918Z,73.00
2023-02-11T11:38:15.408Z,73.97
2023-02-11T11:43:13.175Z,73.31
2023-02-11T11:48:06.723Z,73.17
2023-02-11T11:53:11.324Z,72.81
2023-02-11T11:58:04.657Z,72.83
2023-02-11T12:03:09.840Z,73.29
2023-02-11T12:08:30.631Z,73.12
2023-02-11T12:13:27.897Z,73.34
2023-02-11T12:18:52.578Z,72.90
2023-02-11T12:24:17.395Z,72.22
2023-02-11T12:29:51.778Z,72.66
2023-02-11T12:34:46.142Z,73.16
2023-02-11T12:39:50.207Z,73.37
2023-02-11T12:45:00.522Z,73.46
2023-02-11T12:50:02.793Z,73.46
2023-02-11T12:55:04.022Z,73.46
2023-02-11T12:59:58.974Z,73.64
2023-02-11T13:04:55.697Z,73.91
2023-02-11T13:10:15.036Z,73.92
2023-02-11T13:15:10.305Z,73.94
2023-02-11T13:20:22.151Z,74.10
2023-02-11T13:25:25.607Z,73.93
2023-02-11T13:30:34.787Z,74.06
2023-02-11T13:35:40.305Z,74.32
2023-02-11T13:40:39.822Z,74.47
2023-02-11T13:45:37.520Z,74.30
2023-02-11T13:50:37.205Z,74.66
2023-02-11T13:55:31.252Z,74.12
2023-02-11T14:00:36.162Z,73.51
2023-02-11T14:05:55.671Z,72.54
2023-02-11T14:10:50.503Z,73.04
2023-02-11T14:15:46.512Z,72.76
2023-02-11T14:20:43.289Z,72.81
2023-02-11T14:25:38.701Z,72.88
2023-02-11T14:31:15.476Z,73.00
2023-02-11T14:36:44.643Z,72.42
2023-02-11T14:41:41.930Z,72.09
2023-02-11T14:46:34.421Z,71.70
2023-02-11T14:51:29.466Z,71.65
2023-02-11T14:56:27.292Z,70.71
2023-02-11T15:01:37.429Z,71.08
2023-02-11T15:06:42.799Z,71.08
2023-02-11T15:11:39.902Z,71.52
2023-02-11T15:16:32.800Z,72.31
2023-02-11T15:21:27.690Z,71.92
2023-02-11T15:26:22.089Z,72.31
2023-02-11T15:31:17.421Z,72.54
2023-02-11T15:36:12.059Z,72.37
2023-02-11T15:41:07.404Z,72.96
2023-02-11T15:46:01.841Z,73.44
2023-02-11T15:50:58.701Z,73.79
2023-02-11T15:55:54.386Z,74.06
2023-02-11T16:00:54.785Z,74.18
2023-02-11T16:05:46.526Z,74.32
2023-02-11T16:10:38.806Z,74.58
2023-02-11T16:15:30.754Z,74.94
2023-02-11T16:20:22.644Z,75.00
2023-02-11T16:25:20.740Z,75.29
2023-02-11T16:30:34.714Z,75.43
2023-02-11T16:35:26.473Z,75.89
2023-02-11T16:40:18.353Z,76.19
2023-02-11T16:45:10.257Z,75.94
2023-02-11T16:50:02.968Z,75.88
2023-02-11T16:54:54.732Z,76.05
2023-02-11T16:59:47.435Z,76.44
2023-02-11T17:04:39.282Z,75.99
2023-02-11T17:09:31.379Z,76.53
2023-02-11T17:14:23.213Z,76.43
2023-02-11T17:19:20.697Z,76.20
2023-02-11T17:24:14.302Z,76.39
2023-02-11T17:29:08.295Z,76.86
2023-02-11T17:34:00.528Z,77.41
2023-02-11T17:38:52.257Z,77.66
2023-02-11T17:43:44.078Z,77.62
2023-02-11T17:48:39.426Z,77.86
2023-02-11T17:53:31.818Z,78.60
2023-02-11T17:58:23.909Z,78.23
2023-02-11T18:03:15.862Z,78.66
2023-02-11T18:08:07.996Z,79.35
2023-02-11T18:13:02.536Z,78.98
2023-02-11T18:17:55.429Z,79.39
2023-02-11T18:22:47.341Z,79.08
2023-02-11T18:27:39.891Z,79.58
2023-02-11T18:32:32.073Z,80.03
2023-02-11T18:37:24.026Z,79.77
2023-02-11T18:42:15.763Z,79.59
2023-02-11T18:47:08.693Z,79.93
2023-02-11T18:52:00.408Z,79.83
2023-02-11T18:56:52.232Z,80.46
2023-02-11T19:01:46.845Z,79.84
2023-02-11T19:06:39.436Z,80.02
2023-02-11T19:11:47.917Z,79.50
2023-02-11T19:16:41.833Z,79.40
2023-02-11T19:21:34.396Z,80.04
2023-02-11T19:26:26.883Z,79.56
2023-02-11T19:31:18.674Z,79.07
2023-02-11T19:36:16.319Z,79.58
2023-02-11T19:41:08.256Z,79.04
2023-02-11T19:46:04.377Z,79.56
2023-02-11T19:50:56.543Z,79.17
2023-02-11T19:55:50.161Z,78.89
2023-02-11T20:00:42.646Z,79.75
2023-02-11T20:05:35.361Z,79.92
2023-02-11T20:10:28.247Z,79.50
2023-02-11T20:15:19.899Z,79.44
2023-02-11T20:20:12.893Z,79.63
2023-02-11T20:25:05.044Z,79.77
2023-02-11T20:29:57.054Z,79.93
2023-02-11T20:34:48.878Z,79.51
2023-02-11T20:39:42.452Z,79.42
2023-02-11T20:44:36.942Z,78.66
2023-02-11T20:49:29.438Z,78.88
2023-02-11T20:54:23.087Z,78.63
2023-02-11T20:59:17.411Z,79.07
2023-02-11T21:04:19.794Z,78.64
2023-02-11T21:09:15.387Z,78.90
2023-02-11T21:14:07.919Z,78.44
2023-02-11T21:19:00.609Z,78.53
2023-02-11T21:23:53.169Z,77.97
2023-02-11T21:28:45.435Z,77.48
2023-02-11T21:33:38.180Z,78.35
2023-02-11T21:38:31.002Z,77.79
2023-02-11T21:43:23.284Z,78.48
2023-02-11T21:48:16.900Z,78.41
2023-02-11T21:53:09.235Z,77.74
2023-02-11T21:58:01.058Z,77.94
2023-02-11T22:02:54.345Z,77.88
2023-02-11T22:07:46.083Z,77.34
2023-02-11T22:12:37.796Z,78.04
2023-02-11T22:17:29.534Z,77.70
2023-02-11T22:22:21.334Z,77.20
2023-02-11T22:27:14.424Z,77.31
2023-02-11T22:32:06.456Z,77.46
2023-02-11T22:36:58.198Z,77.39
2023-02-11T22:41:49.962Z,77.29
2023-02-11T22:46:43.622Z,77.01
2023-02-11T22:51:36.741Z,77.22
2023-02-11T22:56:30.348Z,77.36
2023-02-11T23:01:22.461Z,77.04
2023-02-11T23:06:14.602Z,77.50
2023-02-11T23:11:11.154Z,77.42
2023-02-11T23:16:05.479Z,76.89
2023-02-11T23:21:03.494Z,76.46
2023-02-11T23:25:55.389Z,76.25
2023-02-11T23:30:47.463Z,76.59
2023-02-11T23:35:39.253Z,76.82
2023-02-11T23:40:30.962Z,76.77
2023-02-11T23:45:22.813Z,76.89
2023-02-11T23:50:14.716Z,77.43
2023-02-11T23:55:06.794Z,77.42
2023-02-11T23:59:58.452Z,77.54
